Time;durP1;ratioP1;P1;durP2;ratioP2;P2;SDS_P1;SDS_P2;PMS_P1;PMS_P2;Temp;Humidity;BMP_temperature;BMP_pressure;BME280_temperature;BME280_humidity;BME280_pressure;Samples;Min_cycle;Max_cycle;Signal;HPM_P1;HPM_P2
2024/04/02 00:01:56;;;;;;;1.75;0.80;;;;;;;;;;5113937;28;20073;-51
2024/04/02 00:04:21;;;;;;;2.42;1.08;;;;;;;;;;5114307;27;20459;-56
2024/04/02 00:06:47;;;;;;;1.27;0.80;;;;;;;;;;5113361;28;20043;-53
2024/04/02 00:09:12;;;;;;;3.42;1.00;;;;;;;;;;5114066;28;20039;-53
2024/04/02 00:11:38;;;;;;;1.75;0.85;;;;;;;;;;5114303;28;20044;-51
2024/04/02 00:14:03;;;;;;;2.45;0.75;;;;;;;;;;5113473;28;20044;-54
2024/04/02 00:16:29;;;;;;;1.77;0.80;;;;;;;;;;5113044;28;20031;-53
2024/04/02 00:18:54;;;;;;;1.58;1.00;;;;;;;;;;5114022;28;20043;-53
2024/04/02 00:21:20;;;;;;;1.70;0.70;;;;;;;;;;5113570;28;20395;-53
2024/04/02 00:23:46;;;;;;;1.45;0.75;;;;;;;;;;5113327;28;20516;-53
2024/04/02 00:26:11;;;;;;;1.13;0.60;;;;;;;;;;5114238;27;20036;-61
2024/04/02 00:28:37;;;;;;;1.40;0.60;;;;;;;;;;5111411;28;20096;-60
2024/04/02 00:31:03;;;;;;;0.77;0.50;;;;;;;;;;5112973;28;20035;-59
2024/04/02 00:33:31;;;;;;;2.40;0.60;;;;;;;;;;5113756;28;20039;-61
2024/04/02 00:36:02;;;;;;;2.88;0.75;;;;;;;;;;5111521;28;20058;-59
2024/04/02 00:38:27;;;;;;;2.03;0.68;;;;;;;;;;5113312;28;20023;-50
2024/04/02 00:40:53;;;;;;;1.67;0.70;;;;;;;;;;5113470;28;20051;-53
2024/04/02 00:43:18;;;;;;;2.53;0.70;;;;;;;;;;5113705;28;20156;-52
2024/04/02 00:45:44;;;;;;;1.83;0.75;;;;;;;;;;5112770;28;20254;-54
2024/04/02 00:48:09;;;;;;;1.63;0.80;;;;;;;;;;5113036;28;20048;-53
2024/04/02 00:50:36;;;;;;;1.33;0.75;;;;;;;;;;5113120;28;20118;-52
2024/04/02 00:53:01;;;;;;;1.60;0.70;;;;;;;;;;5112092;28;20054;-55
2024/04/02 00:55:26;;;;;;;1.58;0.90;;;;;;;;;;5111285;28;20039;-56
2024/04/02 00:57:52;;;;;;;1.40;0.70;;;;;;;;;;5113130;28;20043;-52
2024/04/02 01:00:17;;;;;;;0.98;0.57;;;;;;;;;;5112953;28;20458;-54
2024/04/02 01:02:43;;;;;;;1.95;0.80;;;;;;;;;;5111047;28;20127;-57
2024/04/02 01:05:08;;;;;;;1.23;0.60;;;;;;;;;;5112598;28;20500;-52
2024/04/02 01:07:35;;;;;;;1.10;0.70;;;;;;;;;;5112058;28;20036;-54
2024/04/02 01:10:00;;;;;;;3.03;0.73;;;;;;;;;;5111154;28;20054;-54
2024/04/02 01:12:26;;;;;;;1.48;0.73;;;;;;;;;;5112754;28;20383;-55
2024/04/02 01:14:51;;;;;;;1.88;0.63;;;;;;;;;;5113008;28;20048;-54
2024/04/02 01:17:17;;;;;;;1.48;0.70;;;;;;;;;;5112395;28;20465;-55
2024/04/02 01:19:42;;;;;;;1.17;0.70;;;;;;;;;;5112306;28;20610;-53
2024/04/02 01:22:07;;;;;;;1.45;0.95;;;;;;;;;;5112534;28;20031;-54
2024/04/02 01:24:33;;;;;;;0.95;0.60;;;;;;;;;;5112704;28;20386;-54
2024/04/02 01:26:59;;;;;;;1.33;0.60;;;;;;;;;;5111863;28;20401;-55
2024/04/02 01:29:24;;;;;;;0.93;0.60;;;;;;;;;;5112751;28;20050;-52
2024/04/02 01:31:51;;;;;;;1.10;0.70;;;;;;;;;;5112194;28;20118;-53
2024/04/02 01:34:18;;;;;;;1.15;0.60;;;;;;;;;;5112024;28;20077;-54
2024/04/02 01:36:43;;;;;;;1.13;0.70;;;;;;;;;;5112124;28;20067;-54
2024/04/02 01:39:08;;;;;;;1.73;0.80;;;;;;;;;;5112329;28;20120;-55
2024/04/02 01:41:34;;;;;;;0.70;0.60;;;;;;;;;;5111634;28;20119;-55
2024/04/02 01:44:01;;;;;;;0.80;0.47;;;;;;;;;;5112223;28;20046;-55
2024/04/02 01:46:26;;;;;;;3.08;0.88;;;;;;;;;;5111885;28;20047;-52
2024/04/02 01:48:51;;;;;;;0.90;0.50;;;;;;;;;;5111277;28;20054;-55
2024/04/02 01:51:17;;;;;;;1.35;0.50;;;;;;;;;;5111623;28;20434;-53
2024/04/02 01:53:42;;;;;;;1.15;0.60;;;;;;;;;;5111966;28;20039;-54
2024/04/02 01:56:08;;;;;;;1.05;0.60;;;;;;;;;;5111906;28;20032;-52
2024/04/02 01:58:33;;;;;;;2.83;0.65;;;;;;;;;;5111058;28;20058;-51
2024/04/02 02:00:58;;;;;;;1.25;0.60;;;;;;;;;;5111165;28;20044;-53
2024/04/02 02:03:24;;;;;;;0.85;0.65;;;;;;;;;;5111406;28;20032;-53
2024/04/02 02:05:49;;;;;;;1.05;0.60;;;;;;;;;;5111428;28;20039;-54
2024/04/02 02:08:14;;;;;;;1.90;0.65;;;;;;;;;;5111691;28;20039;-53
2024/04/02 02:10:40;;;;;;;3.08;0.88;;;;;;;;;;5111470;28;20050;-55
2024/04/02 02:13:08;;;;;;;1.23;0.60;;;;;;;;;;5111023;28;20043;-53
2024/04/02 02:15:33;;;;;;;3.00;0.60;;;;;;;;;;5111253;28;20050;-54
2024/04/02 02:17:59;;;;;;;1.90;1.05;;;;;;;;;;5109726;28;20028;-53
2024/04/02 02:20:24;;;;;;;0.95;0.60;;;;;;;;;;5110862;28;20332;-54
2024/04/02 02:22:49;;;;;;;2.50;0.75;;;;;;;;;;5111157;28;20115;-54
2024/04/02 02:25:15;;;;;;;2.50;0.80;;;;;;;;;;5111255;28;20112;-54
2024/04/02 02:27:40;;;;;;;1.52;0.60;;;;;;;;;;5111457;28;20071;-52
2024/04/02 02:30:07;;;;;;;1.80;0.70;;;;;;;;;;5110649;28;20130;-54
2024/04/02 02:32:33;;;;;;;1.98;0.60;;;;;;;;;;5110108;28;20031;-53
2024/04/02 02:34:58;;;;;;;0.88;0.60;;;;;;;;;;5111297;28;20497;-56
2024/04/02 02:37:23;;;;;;;1.08;0.60;;;;;;;;;;5110363;28;20046;-55
2024/04/02 02:39:49;;;;;;;1.67;0.70;;;;;;;;;;5110949;28;20023;-54
2024/04/02 02:42:14;;;;;;;0.98;0.60;;;;;;;;;;5110855;28;20039;-55
2024/04/02 02:44:40;;;;;;;1.27;0.60;;;;;;;;;;5111063;28;20097;-57
2024/04/02 02:47:05;;;;;;;3.03;0.57;;;;;;;;;;5110397;28;20039;-55
2024/04/02 02:49:31;;;;;;;1.45;0.50;;;;;;;;;;5110860;28;20048;-54
2024/04/02 02:51:56;;;;;;;1.02;0.60;;;;;;;;;;5110860;28;20428;-52
2024/04/02 02:54:23;;;;;;;3.70;0.60;;;;;;;;;;5110410;28;20035;-53
2024/04/02 02:56:48;;;;;;;2.08;0.50;;;;;;;;;;5110551;28;20043;-55
2024/04/02 02:59:14;;;;;;;1.00;0.68;;;;;;;;;;5110856;28;20097;-52
2024/04/02 03:01:39;;;;;;;0.98;0.60;;;;;;;;;;5110032;28;20035;-54
2024/04/02 03:04:04;;;;;;;1.92;0.50;;;;;;;;;;5110918;28;20039;-53
2024/04/02 03:06:30;;;;;;;0.90;0.57;;;;;;;;;;5110691;28;20509;-56
2024/04/02 03:08:55;;;;;;;1.23;0.63;;;;;;;;;;5110755;28;20028;-54
2024/04/02 03:11:21;;;;;;;1.27;0.70;;;;;;;;;;5110613;28;20398;-54
2024/04/02 03:13:46;;;;;;;1.15;0.50;;;;;;;;;;5110758;28;20039;-54
2024/04/02 03:16:11;;;;;;;1.95;0.50;;;;;;;;;;5110343;28;20035;-56
2024/04/02 03:18:36;;;;;;;1.25;0.70;;;;;;;;;;5110024;28;20039;-53
2024/04/02 03:21:04;;;;;;;1.80;0.60;;;;;;;;;;5110172;28;20046;-52
2024/04/02 03:23:29;;;;;;;1.15;0.68;;;;;;;;;;5109148;28;20028;-53
2024/04/02 03:26:02;;;;;;;1.52;0.63;;;;;;;;;;5109921;28;20034;-51
2024/04/02 03:28:32;;;;;;;1.55;0.45;;;;;;;;;;5108691;28;20406;-57
2024/04/02 03:30:59;;;;;;;0.95;0.50;;;;;;;;;;5128528;27;20031;-53
2024/04/02 03:33:26;;;;;;;1.20;0.52;;;;;;;;;;5112804;28;20047;-54
2024/04/02 03:35:51;;;;;;;0.80;0.50;;;;;;;;;;5113220;28;20040;-54
2024/04/02 03:38:17;;;;;;;0.60;0.50;;;;;;;;;;5114523;28;20111;-55
2024/04/02 03:40:42;;;;;;;2.70;0.70;;;;;;;;;;5114191;28;20035;-53
2024/04/02 03:43:08;;;;;;;0.40;0.40;;;;;;;;;;5114172;28;20122;-53
2024/04/02 03:45:42;;;;;;;1.67;1.35;;;;;;;;;;5113162;28;20062;-53
2024/04/02 03:48:08;;;;;;;1.20;0.65;;;;;;;;;;5107121;28;20606;-55
2024/04/02 03:50:37;;;;;;;0.88;0.57;;;;;;;;;;5129935;27;20036;-57
2024/04/02 03:53:03;;;;;;;0.70;0.45;;;;;;;;;;5112934;28;20135;-55
2024/04/02 03:55:34;;;;;;;1.15;0.60;;;;;;;;;;5114163;28;20042;-53
2024/04/02 03:57:59;;;;;;;2.03;0.50;;;;;;;;;;5112658;28;20050;-54
2024/04/02 04:00:24;;;;;;;1.13;0.60;;;;;;;;;;5114011;28;20526;-54
2024/04/02 04:02:50;;;;;;;0.60;0.50;;;;;;;;;;5113689;28;20597;-53
2024/04/02 04:05:15;;;;;;;0.55;0.40;;;;;;;;;;5113649;28;20031;-56
2024/04/02 04:07:40;;;;;;;1.75;0.80;;;;;;;;;;5113652;28;20466;-57
2024/04/02 04:10:06;;;;;;;4.07;0.60;;;;;;;;;;5114167;28;20521;-54
2024/04/02 04:12:31;;;;;;;1.35;0.55;;;;;;;;;;5113509;28;20040;-52
2024/04/02 04:14:56;;;;;;;0.30;0.30;;;;;;;;;;5113817;28;20114;-53
2024/04/02 04:17:22;;;;;;;0.93;0.47;;;;;;;;;;5113431;28;20058;-53
2024/04/02 04:19:47;;;;;;;0.68;0.47;;;;;;;;;;5112288;28;20144;-54
2024/04/02 04:22:12;;;;;;;0.50;0.47;;;;;;;;;;5113275;28;20031;-53
2024/04/02 04:24:38;;;;;;;0.70;0.50;;;;;;;;;;5113773;28;20035;-55
2024/04/02 04:27:03;;;;;;;2.28;0.60;;;;;;;;;;5113587;28;20038;-53
2024/04/02 04:29:28;;;;;;;0.98;0.55;;;;;;;;;;5113143;28;20019;-55
2024/04/02 04:31:54;;;;;;;0.52;0.40;;;;;;;;;;5111683;28;20050;-54
2024/04/02 04:34:19;;;;;;;0.90;0.70;;;;;;;;;;5113667;28;20040;-51
2024/04/02 04:36:44;;;;;;;0.68;0.50;;;;;;;;;;5112728;28;20059;-53
2024/04/02 04:39:10;;;;;;;1.20;0.50;;;;;;;;;;5113106;28;20044;-55
2024/04/02 04:41:35;;;;;;;0.60;0.52;;;;;;;;;;5111970;28;20093;-55
2024/04/02 04:44:01;;;;;;;1.25;0.60;;;;;;;;;;5110758;28;20038;-53
2024/04/02 04:46:26;;;;;;;1.27;0.63;;;;;;;;;;5112043;28;20431;-50
2024/04/02 04:48:52;;;;;;;0.80;0.50;;;;;;;;;;5112381;28;20451;-51
2024/04/02 04:51:17;;;;;;;0.75;0.50;;;;;;;;;;5113315;28;20027;-58
2024/04/02 04:53:43;;;;;;;0.55;0.45;;;;;;;;;;5112903;28;20055;-59
2024/04/02 04:56:08;;;;;;;0.63;0.40;;;;;;;;;;5112752;28;20044;-61
2024/04/02 04:58:34;;;;;;;0.60;0.40;;;;;;;;;;5117316;27;20027;-60
2024/04/02 05:01:01;;;;;;;0.70;0.50;;;;;;;;;;5112048;28;20115;-60
2024/04/02 05:03:26;;;;;;;0.63;0.50;;;;;;;;;;5111604;28;20040;-58
2024/04/02 05:06:05;;;;;;;0.57;0.45;;;;;;;;;;5112415;28;20110;-60
2024/04/02 05:08:35;;;;;;;0.45;0.38;;;;;;;;;;5118389;27;20112;-52
2024/04/02 05:11:02;;;;;;;1.08;0.60;;;;;;;;;;5112763;28;20039;-55
2024/04/02 05:13:28;;;;;;;0.57;0.47;;;;;;;;;;5128634;27;20066;-54
2024/04/02 05:15:53;;;;;;;0.63;0.40;;;;;;;;;;5111916;28;20050;-56
2024/04/02 05:18:18;;;;;;;0.95;0.50;;;;;;;;;;5112525;28;20122;-54
2024/04/02 05:20:44;;;;;;;0.60;0.50;;;;;;;;;;5112519;28;20074;-52
2024/04/02 05:23:09;;;;;;;0.57;0.40;;;;;;;;;;5112489;28;20440;-52
2024/04/02 05:25:35;;;;;;;1.17;0.47;;;;;;;;;;5110441;28;20667;-55
2024/04/02 05:28:00;;;;;;;0.63;0.50;;;;;;;;;;5112536;28;20149;-54
2024/04/02 05:30:26;;;;;;;0.68;0.52;;;;;;;;;;5112148;28;20036;-53
2024/04/02 05:32:51;;;;;;;1.50;0.50;;;;;;;;;;5111434;28;20115;-53
2024/04/02 05:35:16;;;;;;;0.70;0.45;;;;;;;;;;5112277;28;20039;-57
2024/04/02 05:37:42;;;;;;;0.32;0.30;;;;;;;;;;5112093;28;20035;-55
2024/04/02 05:40:07;;;;;;;0.82;0.50;;;;;;;;;;5111402;28;20097;-54
2024/04/02 05:42:33;;;;;;;0.68;0.50;;;;;;;;;;5111851;28;20032;-57
2024/04/02 05:44:59;;;;;;;1.25;0.50;;;;;;;;;;5110225;28;20477;-54
2024/04/02 05:47:25;;;;;;;0.38;0.38;;;;;;;;;;5111538;28;20031;-56
2024/04/02 05:49:50;;;;;;;0.70;0.50;;;;;;;;;;5111753;28;20531;-55
2024/04/02 05:52:16;;;;;;;1.30;0.60;;;;;;;;;;5110200;28;20501;-55
2024/04/02 05:54:42;;;;;;;0.50;0.40;;;;;;;;;;5111043;28;20051;-57
2024/04/02 05:57:07;;;;;;;0.70;0.40;;;;;;;;;;5111317;28;20071;-57
2024/04/02 05:59:32;;;;;;;0.40;0.40;;;;;;;;;;5119704;27;20024;-54
2024/04/02 06:01:58;;;;;;;0.90;0.57;;;;;;;;;;5110841;28;20088;-54
2024/04/02 06:04:23;;;;;;;0.47;0.40;;;;;;;;;;5111251;28;20035;-51
2024/04/02 06:06:48;;;;;;;0.60;0.40;;;;;;;;;;5111342;28;20039;-59
2024/04/02 06:09:14;;;;;;;0.70;0.43;;;;;;;;;;5111588;28;20050;-62
2024/04/02 06:11:39;;;;;;;0.55;0.40;;;;;;;;;;5111306;28;20036;-61
2024/04/02 06:14:05;;;;;;;0.65;0.50;;;;;;;;;;5111505;27;20039;-61
2024/04/02 06:16:30;;;;;;;0.45;0.40;;;;;;;;;;5111042;28;20038;-60
2024/04/02 06:18:55;;;;;;;0.73;0.50;;;;;;;;;;5111243;28;20084;-60
2024/04/02 06:21:21;;;;;;;0.65;0.43;;;;;;;;;;5110990;28;20043;-54
2024/04/02 06:23:47;;;;;;;0.90;0.52;;;;;;;;;;5111230;28;20043;-54
2024/04/02 06:26:14;;;;;;;0.68;0.40;;;;;;;;;;5110681;28;20036;-52
2024/04/02 06:28:40;;;;;;;0.45;0.30;;;;;;;;;;5105896;28;20071;-51
2024/04/02 06:31:05;;;;;;;0.52;0.40;;;;;;;;;;5110872;28;20078;-52
2024/04/02 06:33:30;;;;;;;1.30;0.40;;;;;;;;;;5111380;28;20126;-52
2024/04/02 06:35:56;;;;;;;1.48;0.50;;;;;;;;;;5110571;28;20040;-56
2024/04/02 06:38:21;;;;;;;0.70;0.40;;;;;;;;;;5110701;28;20088;-54
2024/04/02 06:40:46;;;;;;;0.70;0.50;;;;;;;;;;5110988;28;20035;-51
2024/04/02 06:43:12;;;;;;;1.23;0.50;;;;;;;;;;5110542;28;20042;-55
2024/04/02 06:45:37;;;;;;;0.47;0.38;;;;;;;;;;5110718;28;20031;-57
2024/04/02 06:48:02;;;;;;;2.20;0.50;;;;;;;;;;5111022;28;20036;-56
2024/04/02 06:50:28;;;;;;;0.52;0.43;;;;;;;;;;5110282;28;20031;-58
2024/04/02 06:52:54;;;;;;;0.80;0.40;;;;;;;;;;5110672;28;20088;-55
2024/04/02 06:55:20;;;;;;;0.60;0.45;;;;;;;;;;5110863;28;20038;-57
2024/04/02 06:57:45;;;;;;;0.52;0.50;;;;;;;;;;5111829;28;20040;-55
2024/04/02 07:00:11;;;;;;;1.00;0.50;;;;;;;;;;5114603;27;20050;-58
2024/04/02 07:02:36;;;;;;;0.65;0.50;;;;;;;;;;5108103;28;20036;-61
2024/04/02 07:05:01;;;;;;;0.63;0.50;;;;;;;;;;5108388;28;20175;-61
2024/04/02 07:07:27;;;;;;;0.70;0.47;;;;;;;;;;5109102;28;20130;-60
2024/04/02 07:09:52;;;;;;;0.60;0.45;;;;;;;;;;5110372;28;20039;-58
2024/04/02 07:12:17;;;;;;;0.65;0.40;;;;;;;;;;5118845;27;20035;-61
2024/04/02 07:14:43;;;;;;;4.35;0.60;;;;;;;;;;5110226;28;20166;-61
2024/04/02 07:17:08;;;;;;;1.33;0.55;;;;;;;;;;5110273;28;20402;-61
2024/04/02 07:19:33;;;;;;;0.60;0.40;;;;;;;;;;5110743;28;20359;-60
2024/04/02 07:21:59;;;;;;;0.80;0.43;;;;;;;;;;5109883;28;20035;-61
2024/04/02 07:24:24;;;;;;;3.53;0.60;;;;;;;;;;5109602;28;20117;-59
2024/04/02 07:26:49;;;;;;;2.20;0.93;;;;;;;;;;5110006;28;20031;-53
2024/04/02 07:29:15;;;;;;;1.30;0.50;;;;;;;;;;5109991;28;20584;-55
2024/04/02 07:31:40;;;;;;;1.17;0.65;;;;;;;;;;5109887;28;20105;-53
2024/04/02 07:34:05;;;;;;;1.70;0.60;;;;;;;;;;5110006;28;20053;-56
2024/04/02 07:36:31;;;;;;;2.83;0.50;;;;;;;;;;5110025;28;20055;-54
2024/04/02 07:38:56;;;;;;;1.23;0.50;;;;;;;;;;5109706;28;20473;-52
2024/04/02 07:41:21;;;;;;;1.05;0.60;;;;;;;;;;5109683;28;20524;-51
2024/04/02 07:43:47;;;;;;;1.05;0.60;;;;;;;;;;5110235;28;20043;-58
2024/04/02 07:46:12;;;;;;;0.60;0.45;;;;;;;;;;5110183;28;20046;-55
2024/04/02 07:48:37;;;;;;;0.85;0.50;;;;;;;;;;5109806;28;20048;-54
2024/04/02 07:51:12;;;;;;;3.22;0.73;;;;;;;;;;5110134;28;20595;-54
2024/04/02 07:53:37;;;;;;;3.30;0.60;;;;;;;;;;5100562;28;20039;-55
2024/04/02 07:56:03;;;;;;;1.27;0.55;;;;;;;;;;5109346;28;20622;-53
2024/04/02 07:58:28;;;;;;;0.80;0.50;;;;;;;;;;5109569;28;20039;-53
2024/04/02 08:00:54;;;;;;;5.45;0.57;;;;;;;;;;5109821;28;20039;-57
2024/04/02 08:03:20;;;;;;;1.85;0.75;;;;;;;;;;5108815;28;20039;-54
2024/04/02 08:05:45;;;;;;;1.02;0.50;;;;;;;;;;5107883;28;20032;-56
2024/04/02 08:08:10;;;;;;;4.43;0.50;;;;;;;;;;5109852;28;20050;-59
2024/04/02 08:10:36;;;;;;;2.85;0.60;;;;;;;;;;5109758;28;20023;-60
2024/04/02 08:13:01;;;;;;;1.13;0.82;;;;;;;;;;5109308;28;20028;-61
2024/04/02 08:15:26;;;;;;;0.98;0.68;;;;;;;;;;5109131;28;20035;-60
2024/04/02 08:17:52;;;;;;;0.82;0.52;;;;;;;;;;5112757;28;20085;-61
2024/04/02 08:20:17;;;;;;;3.40;0.63;;;;;;;;;;5112602;28;20096;-50
2024/04/02 08:22:43;;;;;;;1.25;0.68;;;;;;;;;;5113072;27;20075;-55
2024/04/02 08:25:10;;;;;;;2.03;0.60;;;;;;;;;;5107456;28;20200;-53
2024/04/02 08:27:36;;;;;;;1.55;0.65;;;;;;;;;;5108602;28;20042;-60
2024/04/02 08:30:01;;;;;;;1.00;0.60;;;;;;;;;;5110902;28;20122;-61
2024/04/02 08:32:26;;;;;;;1.13;0.45;;;;;;;;;;5110467;28;20038;-59
2024/04/02 08:34:52;;;;;;;1.08;0.52;;;;;;;;;;5110051;28;20359;-61
2024/04/02 08:37:17;;;;;;;1.00;0.47;;;;;;;;;;5097165;28;20477;-61
2024/04/02 08:39:42;;;;;;;1.65;0.57;;;;;;;;;;5111187;28;20459;-61
2024/04/02 08:42:08;;;;;;;0.90;0.50;;;;;;;;;;5109406;28;20082;-61
2024/04/02 08:44:36;;;;;;;1.23;0.50;;;;;;;;;;5110045;28;20407;-60
2024/04/02 08:47:01;;;;;;;0.57;0.40;;;;;;;;;;5109272;27;20123;-60
2024/04/02 08:49:27;;;;;;;0.40;0.38;;;;;;;;;;5107873;28;20485;-61
2024/04/02 08:51:55;;;;;;;3.08;0.75;;;;;;;;;;5103751;28;20123;-62
2024/04/02 08:54:21;;;;;;;2.33;0.52;;;;;;;;;;5108057;28;20071;-58
2024/04/02 08:56:47;;;;;;;0.35;0.35;;;;;;;;;;5110154;28;20062;-61
2024/04/02 08:59:14;;;;;;;0.40;0.40;;;;;;;;;;5109882;28;20035;-62
2024/04/02 09:01:41;;;;;;;0.88;0.40;;;;;;;;;;5110464;28;20084;-61
2024/04/02 09:04:07;;;;;;;2.88;0.55;;;;;;;;;;5142948;27;20036;-61
2024/04/02 09:06:32;;;;;;;1.00;0.60;;;;;;;;;;5109276;28;20047;-61
2024/04/02 09:08:57;;;;;;;0.98;0.60;;;;;;;;;;5110011;28;20048;-61
2024/04/02 09:11:24;;;;;;;0.90;0.55;;;;;;;;;;5109973;28;20023;-60
2024/04/02 09:13:50;;;;;;;1.35;0.50;;;;;;;;;;5142923;27;20046;-60
2024/04/02 09:16:16;;;;;;;2.13;0.40;;;;;;;;;;5109395;28;20036;-59
2024/04/02 09:18:42;;;;;;;0.75;0.43;;;;;;;;;;5109814;28;20062;-61
2024/04/02 09:21:12;;;;;;;1.15;0.50;;;;;;;;;;5109782;28;20117;-62
2024/04/02 09:23:37;;;;;;;1.70;0.40;;;;;;;;;;5091152;28;20131;-61
2024/04/02 09:26:02;;;;;;;1.23;0.55;;;;;;;;;;5109545;28;20423;-59
2024/04/02 09:28:28;;;;;;;1.50;0.50;;;;;;;;;;5109716;28;20047;-60
2024/04/02 09:30:53;;;;;;;0.93;0.50;;;;;;;;;;5108814;28;20039;-58
2024/04/02 09:33:19;;;;;;;0.75;0.40;;;;;;;;;;5109650;28;20127;-61
2024/04/02 09:36:05;;;;;;;0.82;0.40;;;;;;;;;;5109363;28;20031;-62
2024/04/02 09:38:32;;;;;;;3.75;0.50;;;;;;;;;;5108909;28;20039;-60
2024/04/02 09:40:59;;;;;;;1.10;0.40;;;;;;;;;;5109596;28;20039;-61
2024/04/02 09:43:24;;;;;;;1.17;0.50;;;;;;;;;;5108994;28;20122;-61
2024/04/02 09:45:50;;;;;;;1.23;0.65;;;;;;;;;;5124524;27;20466;-60
2024/04/02 09:48:16;;;;;;;0.95;0.40;;;;;;;;;;5108029;28;20280;-59
2024/04/02 09:50:43;;;;;;;2.28;0.70;;;;;;;;;;5091157;28;20028;-61
2024/04/02 09:53:09;;;;;;;1.15;0.50;;;;;;;;;;5108517;28;20066;-61
2024/04/02 09:55:35;;;;;;;1.33;0.60;;;;;;;;;;5106366;28;20035;-56
2024/04/02 09:58:01;;;;;;;1.13;0.60;;;;;;;;;;5108487;27;20076;-61
2024/04/02 10:00:31;;;;;;;0.73;0.45;;;;;;;;;;5091795;28;20039;-61
2024/04/02 10:02:56;;;;;;;1.42;0.60;;;;;;;;;;5105040;28;20489;-61
2024/04/02 10:05:22;;;;;;;1.17;0.50;;;;;;;;;;5106102;28;20039;-61
2024/04/02 10:07:50;;;;;;;1.63;0.57;;;;;;;;;;5106875;27;20043;-61
2024/04/02 10:10:16;;;;;;;2.70;0.73;;;;;;;;;;5104453;28;20118;-58
2024/04/02 10:12:41;;;;;;;1.17;0.60;;;;;;;;;;5107313;28;20110;-62
2024/04/02 10:15:10;;;;;;;1.38;0.57;;;;;;;;;;5106071;28;20656;-60
2024/04/02 10:17:36;;;;;;;1.00;0.55;;;;;;;;;;5106371;28;20631;-60
2024/04/02 10:20:03;;;;;;;0.98;0.55;;;;;;;;;;5107530;28;20039;-61
2024/04/02 10:22:36;;;;;;;1.05;0.60;;;;;;;;;;5114489;27;20569;-60
2024/04/02 10:25:09;;;;;;;2.03;0.70;;;;;;;;;;5105356;28;20036;-59
2024/04/02 10:27:34;;;;;;;;;;;;;;;;;;5105970;28;20039;-61
2024/04/02 10:30:00;;;;;;;1.70;0.60;;;;;;;;;;5104902;28;19915;-61
2024/04/02 10:32:30;;;;;;;0.68;0.52;;;;;;;;;;5102330;28;20486;-61
2024/04/02 10:34:55;;;;;;;1.25;0.60;;;;;;;;;;5105691;28;20508;-60
2024/04/02 10:37:20;;;;;;;0.90;0.65;;;;;;;;;;5104710;28;20031;-61
2024/04/02 10:39:46;;;;;;;1.25;0.57;;;;;;;;;;5106228;28;20463;-61
2024/04/02 10:42:11;;;;;;;1.17;0.75;;;;;;;;;;5106924;28;20046;-62
2024/04/02 10:44:36;;;;;;;1.17;0.65;;;;;;;;;;5107240;28;20393;-61
2024/04/02 10:47:02;;;;;;;1.42;0.63;;;;;;;;;;5105040;28;20031;-61
2024/04/02 10:49:27;;;;;;;1.23;0.60;;;;;;;;;;5105367;28;20040;-61
2024/04/02 10:51:53;;;;;;;0.65;0.50;;;;;;;;;;5106990;28;20046;-61
2024/04/02 10:54:18;;;;;;;1.75;0.73;;;;;;;;;;5106570;28;20059;-59
2024/04/02 10:56:43;;;;;;;0.98;0.70;;;;;;;;;;5111018;27;20410;-60
2024/04/02 10:59:11;;;;;;;2.05;0.60;;;;;;;;;;5106521;28;20031;-61
2024/04/02 11:01:36;;;;;;;1.48;0.70;;;;;;;;;;5105237;28;20110;-62
2024/04/02 11:04:02;;;;;;;2.15;0.77;;;;;;;;;;5105199;28;20127;-61
2024/04/02 11:06:28;;;;;;;2.15;0.60;;;;;;;;;;5105424;28;20161;-61
2024/04/02 11:08:54;;;;;;;1.20;0.60;;;;;;;;;;5105325;28;20034;-61
2024/04/02 11:11:24;;;;;;;1.88;0.90;;;;;;;;;;5105984;28;20043;-61
2024/04/02 11:13:49;;;;;;;1.75;0.70;;;;;;;;;;5105845;28;20027;-61
2024/04/02 11:16:17;;;;;;;2.65;0.70;;;;;;;;;;5105421;28;20028;-62
2024/04/02 11:18:42;;;;;;;2.97;0.80;;;;;;;;;;5104617;28;20208;-61
2024/04/02 11:21:13;;;;;;;2.30;0.73;;;;;;;;;;5105485;28;20522;-61
2024/04/02 11:26:23;;;;;;;2.65;0.70;;;;;;;;;;5104558;28;20046;-61
2024/04/02 11:28:48;;;;;;;3.67;0.95;;;;;;;;;;5105490;28;20035;-61
2024/04/02 11:31:17;;;;;;;8.10;0.90;;;;;;;;;;5105903;28;20040;-61
2024/04/02 11:33:42;;;;;;;5.10;0.88;;;;;;;;;;5106329;28;20043;-58
2024/04/02 11:36:09;;;;;;;2.90;0.70;;;;;;;;;;5106379;28;20039;-59
2024/04/02 11:38:35;;;;;;;5.45;0.70;;;;;;;;;;5105788;28;20039;-61
2024/04/02 11:41:05;;;;;;;6.70;0.90;;;;;;;;;;5096718;28;20088;-61
2024/04/02 11:43:31;;;;;;;5.68;1.00;;;;;;;;;;5104158;28;20024;-60
2024/04/02 11:45:56;;;;;;;3.30;1.10;;;;;;;;;;5105622;28;20051;-61
2024/04/02 11:48:22;;;;;;;3.40;0.73;;;;;;;;;;5106442;28;20134;-60
2024/04/02 11:50:48;;;;;;;4.65;0.80;;;;;;;;;;5105048;28;20378;-60
2024/04/02 11:53:13;;;;;;;1.88;0.70;;;;;;;;;;5106572;28;20400;-59
2024/04/02 11:55:41;;;;;;;4.07;0.60;;;;;;;;;;5108503;28;20114;-61
2024/04/02 12:00:51;;;;;;;1.98;0.90;;;;;;;;;;5101257;28;20692;-60
2024/04/02 12:03:16;;;;;;;1.80;0.73;;;;;;;;;;5108833;28;20213;-61
2024/04/02 12:05:41;;;;;;;1.10;0.55;;;;;;;;;;5109948;28;20040;-60
2024/04/02 12:08:07;;;;;;;1.90;0.70;;;;;;;;;;5104965;28;20032;-62
2024/04/02 12:10:33;;;;;;;4.18;0.63;;;;;;;;;;5109096;28;20059;-60
2024/04/02 12:12:58;;;;;;;1.42;0.60;;;;;;;;;;5109545;28;20046;-61
2024/04/02 12:15:23;;;;;;;1.80;0.60;;;;;;;;;;5108806;28;20024;-59
2024/04/02 12:17:49;;;;;;;0.80;0.60;;;;;;;;;;5105403;28;20038;-61
2024/04/02 12:20:14;;;;;;;1.70;0.63;;;;;;;;;;5110295;28;20123;-61
2024/04/02 12:22:39;;;;;;;3.15;0.80;;;;;;;;;;5109852;28;20055;-60
2024/04/02 12:25:05;;;;;;;4.35;0.77;;;;;;;;;;5106106;28;20526;-59
2024/04/02 12:27:30;;;;;;;2.78;0.85;;;;;;;;;;5098283;28;20372;-61
2024/04/02 12:29:56;;;;;;;2.28;0.90;;;;;;;;;;5109080;28;20032;-60
2024/04/02 12:32:26;;;;;;;2.05;0.70;;;;;;;;;;5108104;28;20035;-61
2024/04/02 12:34:51;;;;;;;1.23;0.57;;;;;;;;;;5108369;28;20169;-62
2024/04/02 12:37:17;;;;;;;2.13;0.65;;;;;;;;;;5107986;27;20110;-59
2024/04/02 12:39:44;;;;;;;2.40;0.70;;;;;;;;;;5104693;28;20120;-59
2024/04/02 12:42:10;;;;;;;1.65;0.68;;;;;;;;;;5123169;27;20048;-61
2024/04/02 12:44:38;;;;;;;1.33;0.63;;;;;;;;;;5103093;28;20027;-58
2024/04/02 12:47:04;;;;;;;2.75;0.63;;;;;;;;;;5107170;28;20386;-62
2024/04/02 12:49:30;;;;;;;2.92;0.80;;;;;;;;;;5102140;27;20047;-59
2024/04/02 12:51:55;;;;;;;2.45;0.90;;;;;;;;;;5107097;28;20134;-61
2024/04/02 12:54:21;;;;;;;2.75;0.73;;;;;;;;;;5104168;28;20207;-61
2024/04/02 12:56:46;;;;;;;2.15;0.73;;;;;;;;;;5106410;28;20051;-60
2024/04/02 12:59:12;;;;;;;2.03;1.15;;;;;;;;;;5107217;27;20040;-63
2024/04/02 13:01:37;;;;;;;1.92;0.80;;;;;;;;;;5103467;28;20036;-60
2024/04/02 13:04:02;;;;;;;5.47;0.80;;;;;;;;;;5106019;28;20039;-61
2024/04/02 13:06:28;;;;;;;3.00;0.60;;;;;;;;;;5106654;28;20027;-62
2024/04/02 13:08:54;;;;;;;2.08;0.68;;;;;;;;;;5102362;28;20462;-62
2024/04/02 13:11:19;;;;;;;1.40;0.77;;;;;;;;;;5106026;28;20485;-60
2024/04/02 13:13:45;;;;;;;2.17;0.70;;;;;;;;;;5107818;28;20035;-61
2024/04/02 13:16:19;;;;;;;1.55;0.60;;;;;;;;;;5108050;27;20040;-61
2024/04/02 13:18:45;;;;;;;1.70;0.70;;;;;;;;;;5108147;28;20154;-61
2024/04/02 13:21:14;;;;;;;3.13;0.80;;;;;;;;;;5107864;28;20484;-61
2024/04/02 13:23:39;;;;;;;1.17;0.50;;;;;;;;;;5108672;28;20020;-59
2024/04/02 13:26:08;;;;;;;1.88;0.65;;;;;;;;;;5107865;28;20035;-64
2024/04/02 13:28:35;;;;;;;4.63;1.20;;;;;;;;;;5106789;28;20092;-61
2024/04/02 13:31:04;;;;;;;2.65;0.77;;;;;;;;;;5108038;28;20041;-61
2024/04/02 13:33:29;;;;;;;2.10;0.65;;;;;;;;;;5107111;28;20032;-59
2024/04/02 13:35:55;;;;;;;1.88;0.55;;;;;;;;;;5105893;28;20062;-61
2024/04/02 13:38:20;;;;;;;1.60;0.60;;;;;;;;;;5107434;28;20027;-59
2024/04/02 13:40:48;;;;;;;2.15;0.75;;;;;;;;;;5106032;28;20566;-61
2024/04/02 13:43:13;;;;;;;1.80;0.68;;;;;;;;;;5107597;28;20039;-62
2024/04/02 13:45:39;;;;;;;1.65;0.70;;;;;;;;;;5108259;28;20526;-62
2024/04/02 13:48:04;;;;;;;2.30;0.60;;;;;;;;;;5107504;28;20035;-60
2024/04/02 13:50:30;;;;;;;2.05;0.80;;;;;;;;;;5107154;28;20371;-61
2024/04/02 13:52:55;;;;;;;1.60;0.60;;;;;;;;;;5107436;28;20153;-62
2024/04/02 13:55:21;;;;;;;2.15;0.70;;;;;;;;;;5108159;28;20039;-60
2024/04/02 13:57:46;;;;;;;3.72;0.70;;;;;;;;;;5103945;28;20638;-63
2024/04/02 14:00:12;;;;;;;0.82;0.50;;;;;;;;;;5105200;28;20466;-60
2024/04/02 14:02:37;;;;;;;3.25;0.60;;;;;;;;;;5105325;28;20027;-62
2024/04/02 14:05:03;;;;;;;1.42;0.50;;;;;;;;;;5107435;28;20426;-58
2024/04/02 14:07:32;;;;;;;1.73;0.70;;;;;;;;;;5101797;28;20036;-62
2024/04/02 14:09:57;;;;;;;1.52;0.70;;;;;;;;;;5103836;27;20039;-61
2024/04/02 14:12:22;;;;;;;1.38;0.60;;;;;;;;;;5107805;27;20136;-58
2024/04/02 14:14:47;;;;;;;1.10;0.50;;;;;;;;;;5107280;28;20038;-60
2024/04/02 14:17:13;;;;;;;2.42;0.80;;;;;;;;;;5106507;28;20043;-57
2024/04/02 14:19:39;;;;;;;1.33;0.40;;;;;;;;;;5106003;28;20176;-61
2024/04/02 14:22:04;;;;;;;2.17;0.50;;;;;;;;;;5107705;27;20031;-60
2024/04/02 14:24:29;;;;;;;0.55;0.40;;;;;;;;;;5106071;28;20039;-62
2024/04/02 14:26:55;;;;;;;1.10;0.50;;;;;;;;;;5107029;28;20088;-61
2024/04/02 14:29:20;;;;;;;1.05;0.45;;;;;;;;;;5107330;28;20046;-62
2024/04/02 14:31:45;;;;;;;1.42;0.57;;;;;;;;;;5106218;28;20039;-59
2024/04/02 14:34:11;;;;;;;2.47;0.95;;;;;;;;;;5107030;28;20092;-61
2024/04/02 14:36:38;;;;;;;1.77;0.63;;;;;;;;;;5105601;28;20206;-60
2024/04/02 14:39:03;;;;;;;1.10;0.57;;;;;;;;;;5105387;28;20051;-63
2024/04/02 14:41:29;;;;;;;1.88;0.55;;;;;;;;;;5103354;28;20441;-60